Terminal Aerodrome Forecast
Issued by NWS

Home | Current Version | Previous Version | Text Only | Print | Product List | Glossary On
Versions: 1 2 3 4 5 6 7 8 9 10 11 12 13 14 15 16 17 18 19 20 21 22 23 24
000
FTUS45 KREV 102300
TAFTRK
TAF
KTRK 102320Z 1100/1124 26006KT P6SM VCTS SCT110CB BKN180
      TEMPO 1100/1102 VRB15G25KT -SHRA SCT050 BKN090
     FM110200 27010KT P6SM SCT060 BKN100
     FM110500 VRB03KT P6SM BKN100
     FM111800 24010KT P6SM FEW080
      AMD NOT SKED 1101/1112=

USA.gov is the U.S. government's official web portal to all federal, state and local government web resources and services.